sensor_id;sensor_type;location;lat;lon;timestamp;P1;durP1;ratioP1;P2;durP2;ratioP2
9294;SDS011;4686;44.496;11.324;2022-12-20T00:01:39;49.90;;;31.43;;
9294;SDS011;4686;44.496;11.324;2022-12-20T00:04:09;47.87;;;30.83;;
9294;SDS011;4686;44.496;11.324;2022-12-20T00:06:37;47.10;;;31.10;;
9294;SDS011;4686;44.496;11.324;2022-12-20T00:09:06;46.53;;;30.77;;
9294;SDS011;4686;44.496;11.324;2022-12-20T00:11:34;46.43;;;31.20;;
9294;SDS011;4686;44.496;11.324;2022-12-20T00:14:01;45.10;;;29.67;;
9294;SDS011;4686;44.496;11.324;2022-12-20T00:16:28;43.67;;;29.80;;
9294;SDS011;4686;44.496;11.324;2022-12-20T00:18:56;47.37;;;30.70;;
9294;SDS011;4686;44.496;11.324;2022-12-20T00:21:25;50.77;;;29.53;;
9294;SDS011;4686;44.496;11.324;2022-12-20T00:23:53;47.97;;;30.37;;
9294;SDS011;4686;44.496;11.324;2022-12-20T00:26:21;49.40;;;30.87;;
9294;SDS011;4686;44.496;11.324;2022-12-20T00:28:49;45.10;;;30.67;;
9294;SDS011;4686;44.496;11.324;2022-12-20T00:31:17;47.90;;;29.50;;
9294;SDS011;4686;44.496;11.324;2022-12-20T00:33:45;47.50;;;30.03;;
9294;SDS011;4686;44.496;11.324;2022-12-20T00:36:13;43.07;;;30.10;;
9294;SDS011;4686;44.496;11.324;2022-12-20T00:38:44;48.30;;;30.73;;
9294;SDS011;4686;44.496;11.324;2022-12-20T00:41:12;45.93;;;28.67;;
9294;SDS011;4686;44.496;11.324;2022-12-20T00:43:40;47.80;;;29.57;;
9294;SDS011;4686;44.496;11.324;2022-12-20T00:46:08;42.27;;;28.70;;
9294;SDS011;4686;44.496;11.324;2022-12-20T00:48:36;43.80;;;29.60;;
9294;SDS011;4686;44.496;11.324;2022-12-20T00:51:04;47.97;;;30.40;;
9294;SDS011;4686;44.496;11.324;2022-12-20T00:53:31;50.03;;;30.90;;
9294;SDS011;4686;44.496;11.324;2022-12-20T00:56:00;48.97;;;29.77;;
9294;SDS011;4686;44.496;11.324;2022-12-20T00:58:28;45.20;;;30.83;;
9294;SDS011;4686;44.496;11.324;2022-12-20T01:00:55;46.03;;;29.50;;
9294;SDS011;4686;44.496;11.324;2022-12-20T01:03:23;51.50;;;30.33;;
9294;SDS011;4686;44.496;11.324;2022-12-20T01:05:50;49.77;;;31.67;;
9294;SDS011;4686;44.496;11.324;2022-12-20T01:08:19;44.77;;;30.20;;
9294;SDS011;4686;44.496;11.324;2022-12-20T01:10:47;54.60;;;33.80;;
9294;SDS011;4686;44.496;11.324;2022-12-20T01:13:30;49.20;;;31.70;;
9294;SDS011;4686;44.496;11.324;2022-12-20T01:16:02;47.33;;;30.93;;
9294;SDS011;4686;44.496;11.324;2022-12-20T01:18:30;44.63;;;29.53;;
9294;SDS011;4686;44.496;11.324;2022-12-20T01:21:01;47.97;;;31.20;;
9294;SDS011;4686;44.496;11.324;2022-12-20T01:23:29;45.53;;;29.40;;
9294;SDS011;4686;44.496;11.324;2022-12-20T01:25:57;45.37;;;31.10;;
9294;SDS011;4686;44.496;11.324;2022-12-20T01:28:24;45.60;;;29.97;;
9294;SDS011;4686;44.496;11.324;2022-12-20T01:30:53;44.33;;;29.40;;
9294;SDS011;4686;44.496;11.324;2022-12-20T01:33:20;47.30;;;31.43;;
9294;SDS011;4686;44.496;11.324;2022-12-20T01:35:54;51.03;;;31.50;;
9294;SDS011;4686;44.496;11.324;2022-12-20T01:38:22;47.63;;;31.07;;
9294;SDS011;4686;44.496;11.324;2022-12-20T01:40:49;46.00;;;30.47;;
9294;SDS011;4686;44.496;11.324;2022-12-20T01:43:17;43.20;;;30.60;;
9294;SDS011;4686;44.496;11.324;2022-12-20T01:45:45;42.90;;;29.60;;
9294;SDS011;4686;44.496;11.324;2022-12-20T01:48:14;42.70;;;28.30;;
9294;SDS011;4686;44.496;11.324;2022-12-20T01:50:43;47.87;;;29.13;;
9294;SDS011;4686;44.496;11.324;2022-12-20T01:53:10;45.97;;;28.10;;
9294;SDS011;4686;44.496;11.324;2022-12-20T01:55:37;44.30;;;29.07;;
9294;SDS011;4686;44.496;11.324;2022-12-20T01:58:05;41.73;;;28.90;;
9294;SDS011;4686;44.496;11.324;2022-12-20T02:00:33;43.77;;;27.47;;
9294;SDS011;4686;44.496;11.324;2022-12-20T02:03:02;42.43;;;27.70;;
9294;SDS011;4686;44.496;11.324;2022-12-20T02:05:34;46.40;;;28.33;;
9294;SDS011;4686;44.496;11.324;2022-12-20T02:08:01;42.80;;;27.47;;
9294;SDS011;4686;44.496;11.324;2022-12-20T02:10:31;43.33;;;28.60;;
9294;SDS011;4686;44.496;11.324;2022-12-20T02:13:03;43.83;;;28.00;;
9294;SDS011;4686;44.496;11.324;2022-12-20T02:15:35;41.23;;;27.43;;
9294;SDS011;4686;44.496;11.324;2022-12-20T02:18:12;43.93;;;27.93;;
9294;SDS011;4686;44.496;11.324;2022-12-20T02:20:56;40.70;;;27.40;;
9294;SDS011;4686;44.496;11.324;2022-12-20T02:26:17;45.07;;;29.33;;
9294;SDS011;4686;44.496;11.324;2022-12-20T02:28:53;39.67;;;28.20;;
9294;SDS011;4686;44.496;11.324;2022-12-20T02:31:25;45.93;;;27.93;;
9294;SDS011;4686;44.496;11.324;2022-12-20T02:33:53;43.97;;;28.60;;
9294;SDS011;4686;44.496;11.324;2022-12-20T02:36:21;43.67;;;28.37;;
9294;SDS011;4686;44.496;11.324;2022-12-20T02:38:49;41.97;;;28.20;;
9294;SDS011;4686;44.496;11.324;2022-12-20T02:41:17;42.50;;;27.43;;
9294;SDS011;4686;44.496;11.324;2022-12-20T02:43:47;44.57;;;28.73;;
9294;SDS011;4686;44.496;11.324;2022-12-20T02:46:34;45.90;;;30.30;;
9294;SDS011;4686;44.496;11.324;2022-12-20T02:49:03;40.63;;;29.00;;
9294;SDS011;4686;44.496;11.324;2022-12-20T02:51:31;38.90;;;27.60;;
9294;SDS011;4686;44.496;11.324;2022-12-20T02:53:59;41.13;;;25.83;;
9294;SDS011;4686;44.496;11.324;2022-12-20T02:56:26;41.70;;;28.40;;
9294;SDS011;4686;44.496;11.324;2022-12-20T02:58:56;47.97;;;28.63;;
9294;SDS011;4686;44.496;11.324;2022-12-20T03:01:25;44.00;;;29.60;;
9294;SDS011;4686;44.496;11.324;2022-12-20T03:03:55;41.10;;;28.00;;
9294;SDS011;4686;44.496;11.324;2022-12-20T03:06:24;41.80;;;28.33;;
9294;SDS011;4686;44.496;11.324;2022-12-20T03:08:51;43.00;;;28.03;;
9294;SDS011;4686;44.496;11.324;2022-12-20T03:11:18;39.27;;;27.90;;
9294;SDS011;4686;44.496;11.324;2022-12-20T03:13:48;40.17;;;27.90;;
9294;SDS011;4686;44.496;11.324;2022-12-20T03:16:15;39.80;;;27.27;;
9294;SDS011;4686;44.496;11.324;2022-12-20T03:18:42;37.90;;;26.10;;
9294;SDS011;4686;44.496;11.324;2022-12-20T03:21:11;40.50;;;27.20;;
9294;SDS011;4686;44.496;11.324;2022-12-20T03:23:39;41.20;;;27.63;;
9294;SDS011;4686;44.496;11.324;2022-12-20T03:26:06;38.87;;;27.13;;
9294;SDS011;4686;44.496;11.324;2022-12-20T03:28:34;42.07;;;28.57;;
9294;SDS011;4686;44.496;11.324;2022-12-20T03:31:01;41.40;;;27.60;;
9294;SDS011;4686;44.496;11.324;2022-12-20T03:33:28;40.07;;;27.20;;
9294;SDS011;4686;44.496;11.324;2022-12-20T03:35:56;37.47;;;26.90;;
9294;SDS011;4686;44.496;11.324;2022-12-20T03:38:24;42.13;;;27.63;;
9294;SDS011;4686;44.496;11.324;2022-12-20T03:40:52;39.00;;;26.30;;
9294;SDS011;4686;44.496;11.324;2022-12-20T03:43:19;39.93;;;28.03;;
9294;SDS011;4686;44.496;11.324;2022-12-20T03:45:46;39.83;;;28.40;;
9294;SDS011;4686;44.496;11.324;2022-12-20T03:48:13;42.67;;;27.73;;
9294;SDS011;4686;44.496;11.324;2022-12-20T03:50:41;42.67;;;29.00;;
9294;SDS011;4686;44.496;11.324;2022-12-20T03:53:08;40.20;;;27.90;;
9294;SDS011;4686;44.496;11.324;2022-12-20T03:55:37;46.07;;;28.23;;
9294;SDS011;4686;44.496;11.324;2022-12-20T03:58:04;39.67;;;27.80;;
9294;SDS011;4686;44.496;11.324;2022-12-20T04:00:31;42.53;;;27.50;;
9294;SDS011;4686;44.496;11.324;2022-12-20T04:02:59;43.90;;;27.90;;
9294;SDS011;4686;44.496;11.324;2022-12-20T04:05:26;45.50;;;28.83;;
9294;SDS011;4686;44.496;11.324;2022-12-20T04:07:53;45.10;;;30.00;;
9294;SDS011;4686;44.496;11.324;2022-12-20T04:10:21;47.97;;;29.70;;
9294;SDS011;4686;44.496;11.324;2022-12-20T04:12:50;46.50;;;31.53;;
9294;SDS011;4686;44.496;11.324;2022-12-20T04:15:17;48.83;;;31.10;;
9294;SDS011;4686;44.496;11.324;2022-12-20T04:17:45;48.23;;;29.80;;
9294;SDS011;4686;44.496;11.324;2022-12-20T04:20:12;51.10;;;31.80;;
9294;SDS011;4686;44.496;11.324;2022-12-20T04:22:46;47.93;;;30.70;;
9294;SDS011;4686;44.496;11.324;2022-12-20T04:25:17;49.50;;;29.00;;
9294;SDS011;4686;44.496;11.324;2022-12-20T04:27:44;42.80;;;28.50;;
9294;SDS011;4686;44.496;11.324;2022-12-20T04:30:13;40.47;;;26.40;;
9294;SDS011;4686;44.496;11.324;2022-12-20T04:32:40;52.73;;;28.57;;
9294;SDS011;4686;44.496;11.324;2022-12-20T04:35:08;41.43;;;29.07;;
9294;SDS011;4686;44.496;11.324;2022-12-20T04:37:35;39.53;;;27.73;;
9294;SDS011;4686;44.496;11.324;2022-12-20T04:40:03;38.60;;;27.43;;
9294;SDS011;4686;44.496;11.324;2022-12-20T04:42:30;44.70;;;28.90;;
9294;SDS011;4686;44.496;11.324;2022-12-20T04:44:57;40.53;;;28.67;;
9294;SDS011;4686;44.496;11.324;2022-12-20T04:47:26;47.73;;;29.70;;
9294;SDS011;4686;44.496;11.324;2022-12-20T04:49:53;40.83;;;28.77;;
9294;SDS011;4686;44.496;11.324;2022-12-20T04:52:21;38.07;;;25.70;;
9294;SDS011;4686;44.496;11.324;2022-12-20T04:55:05;41.30;;;27.27;;
9294;SDS011;4686;44.496;11.324;2022-12-20T04:57:33;38.90;;;26.10;;
9294;SDS011;4686;44.496;11.324;2022-12-20T05:00:00;43.70;;;30.30;;
9294;SDS011;4686;44.496;11.324;2022-12-20T05:02:29;50.33;;;32.47;;
9294;SDS011;4686;44.496;11.324;2022-12-20T05:04:57;47.80;;;30.10;;
9294;SDS011;4686;44.496;11.324;2022-12-20T05:07:24;50.23;;;33.60;;
9294;SDS011;4686;44.496;11.324;2022-12-20T05:09:52;49.60;;;31.13;;
9294;SDS011;4686;44.496;11.324;2022-12-20T05:12:19;45.83;;;31.53;;
9294;SDS011;4686;44.496;11.324;2022-12-20T05:14:46;52.33;;;32.13;;
9294;SDS011;4686;44.496;11.324;2022-12-20T05:17:14;52.67;;;32.27;;
9294;SDS011;4686;44.496;11.324;2022-12-20T05:19:43;54.40;;;32.30;;
9294;SDS011;4686;44.496;11.324;2022-12-20T05:22:10;54.93;;;32.90;;
9294;SDS011;4686;44.496;11.324;2022-12-20T05:24:55;47.77;;;30.57;;
9294;SDS011;4686;44.496;11.324;2022-12-20T05:27:39;50.53;;;32.23;;
9294;SDS011;4686;44.496;11.324;2022-12-20T05:30:07;51.07;;;33.23;;
9294;SDS011;4686;44.496;11.324;2022-12-20T05:32:35;52.83;;;33.80;;
9294;SDS011;4686;44.496;11.324;2022-12-20T05:35:04;53.00;;;31.47;;
9294;SDS011;4686;44.496;11.324;2022-12-20T05:37:32;51.33;;;32.70;;
9294;SDS011;4686;44.496;11.324;2022-12-20T05:39:59;49.20;;;31.20;;
9294;SDS011;4686;44.496;11.324;2022-12-20T05:42:26;50.13;;;32.77;;
9294;SDS011;4686;44.496;11.324;2022-12-20T05:44:53;53.53;;;31.30;;
9294;SDS011;4686;44.496;11.324;2022-12-20T05:47:21;50.60;;;31.27;;
9294;SDS011;4686;44.496;11.324;2022-12-20T05:49:48;48.63;;;30.70;;
9294;SDS011;4686;44.496;11.324;2022-12-20T05:52:17;49.67;;;32.30;;
9294;SDS011;4686;44.496;11.324;2022-12-20T05:54:44;48.47;;;29.70;;
9294;SDS011;4686;44.496;11.324;2022-12-20T05:57:12;45.30;;;29.03;;
9294;SDS011;4686;44.496;11.324;2022-12-20T05:59:40;47.43;;;30.40;;
9294;SDS011;4686;44.496;11.324;2022-12-20T06:02:07;50.13;;;31.13;;
9294;SDS011;4686;44.496;11.324;2022-12-20T06:04:34;53.50;;;33.23;;
9294;SDS011;4686;44.496;11.324;2022-12-20T06:07:02;53.20;;;33.20;;
9294;SDS011;4686;44.496;11.324;2022-12-20T06:09:31;55.27;;;32.57;;
9294;SDS011;4686;44.496;11.324;2022-12-20T06:11:58;45.63;;;30.13;;
9294;SDS011;4686;44.496;11.324;2022-12-20T06:14:26;52.27;;;32.67;;
9294;SDS011;4686;44.496;11.324;2022-12-20T06:16:53;49.97;;;30.90;;
9294;SDS011;4686;44.496;11.324;2022-12-20T06:19:20;46.43;;;30.90;;
9294;SDS011;4686;44.496;11.324;2022-12-20T06:21:47;46.43;;;29.50;;
9294;SDS011;4686;44.496;11.324;2022-12-20T06:24:15;44.70;;;28.83;;
9294;SDS011;4686;44.496;11.324;2022-12-20T06:26:44;53.80;;;29.80;;
9294;SDS011;4686;44.496;11.324;2022-12-20T06:29:11;49.43;;;29.83;;
9294;SDS011;4686;44.496;11.324;2022-12-20T06:31:41;42.30;;;28.93;;
9294;SDS011;4686;44.496;11.324;2022-12-20T06:34:08;45.43;;;30.23;;
9294;SDS011;4686;44.496;11.324;2022-12-20T06:36:36;47.07;;;29.57;;
9294;SDS011;4686;44.496;11.324;2022-12-20T06:39:03;46.50;;;29.57;;
9294;SDS011;4686;44.496;11.324;2022-12-20T06:41:32;48.60;;;30.73;;
9294;SDS011;4686;44.496;11.324;2022-12-20T06:44:01;49.00;;;31.27;;
9294;SDS011;4686;44.496;11.324;2022-12-20T06:46:28;50.90;;;31.13;;
9294;SDS011;4686;44.496;11.324;2022-12-20T06:48:55;48.63;;;29.87;;
9294;SDS011;4686;44.496;11.324;2022-12-20T06:51:23;42.93;;;26.70;;
9294;SDS011;4686;44.496;11.324;2022-12-20T06:53:50;44.67;;;30.00;;
9294;SDS011;4686;44.496;11.324;2022-12-20T06:56:18;48.40;;;30.67;;
9294;SDS011;4686;44.496;11.324;2022-12-20T06:58:46;45.57;;;30.27;;
9294;SDS011;4686;44.496;11.324;2022-12-20T07:01:14;47.30;;;29.43;;
9294;SDS011;4686;44.496;11.324;2022-12-20T07:03:41;51.20;;;31.77;;
9294;SDS011;4686;44.496;11.324;2022-12-20T07:06:09;47.83;;;30.70;;
9294;SDS011;4686;44.496;11.324;2022-12-20T07:08:36;44.43;;;29.50;;
9294;SDS011;4686;44.496;11.324;2022-12-20T07:11:03;52.00;;;31.73;;
9294;SDS011;4686;44.496;11.324;2022-12-20T07:13:31;48.50;;;30.70;;
9294;SDS011;4686;44.496;11.324;2022-12-20T07:15:58;48.60;;;30.87;;
9294;SDS011;4686;44.496;11.324;2022-12-20T07:18:27;56.43;;;33.33;;
9294;SDS011;4686;44.496;11.324;2022-12-20T07:20:57;45.27;;;30.23;;
9294;SDS011;4686;44.496;11.324;2022-12-20T07:23:25;50.23;;;30.90;;
9294;SDS011;4686;44.496;11.324;2022-12-20T07:25:52;51.63;;;33.17;;
9294;SDS011;4686;44.496;11.324;2022-12-20T07:28:23;49.03;;;31.03;;
9294;SDS011;4686;44.496;11.324;2022-12-20T07:30:51;41.10;;;29.63;;
9294;SDS011;4686;44.496;11.324;2022-12-20T07:33:19;53.23;;;32.73;;
9294;SDS011;4686;44.496;11.324;2022-12-20T07:35:47;43.70;;;29.57;;
9294;SDS011;4686;44.496;11.324;2022-12-20T07:38:15;49.57;;;31.37;;
9294;SDS011;4686;44.496;11.324;2022-12-20T07:40:43;42.10;;;28.10;;
9294;SDS011;4686;44.496;11.324;2022-12-20T07:43:10;42.00;;;28.60;;
9294;SDS011;4686;44.496;11.324;2022-12-20T07:45:37;44.17;;;28.10;;
9294;SDS011;4686;44.496;11.324;2022-12-20T07:48:05;44.20;;;28.43;;
9294;SDS011;4686;44.496;11.324;2022-12-20T07:50:32;43.77;;;30.10;;
9294;SDS011;4686;44.496;11.324;2022-12-20T07:53:04;43.73;;;29.87;;
9294;SDS011;4686;44.496;11.324;2022-12-20T07:55:31;50.23;;;31.70;;
9294;SDS011;4686;44.496;11.324;2022-12-20T07:58:01;41.27;;;27.60;;
9294;SDS011;4686;44.496;11.324;2022-12-20T08:00:31;58.60;;;36.30;;
9294;SDS011;4686;44.496;11.324;2022-12-20T08:03:03;64.30;;;37.80;;
9294;SDS011;4686;44.496;11.324;2022-12-20T08:05:32;69.70;;;41.10;;
9294;SDS011;4686;44.496;11.324;2022-12-20T08:08:04;91.33;;;43.60;;
9294;SDS011;4686;44.496;11.324;2022-12-20T08:10:32;82.00;;;44.60;;
9294;SDS011;4686;44.496;11.324;2022-12-20T08:12:59;80.20;;;44.37;;
9294;SDS011;4686;44.496;11.324;2022-12-20T08:15:26;89.53;;;45.83;;
9294;SDS011;4686;44.496;11.324;2022-12-20T08:17:54;89.93;;;47.77;;
9294;SDS011;4686;44.496;11.324;2022-12-20T08:20:21;72.80;;;44.50;;
9294;SDS011;4686;44.496;11.324;2022-12-20T08:22:48;75.47;;;43.63;;
9294;SDS011;4686;44.496;11.324;2022-12-20T08:25:17;80.33;;;42.27;;
9294;SDS011;4686;44.496;11.324;2022-12-20T08:27:45;85.93;;;44.00;;
9294;SDS011;4686;44.496;11.324;2022-12-20T08:30:13;77.53;;;43.13;;
9294;SDS011;4686;44.496;11.324;2022-12-20T08:32:41;83.80;;;45.17;;
9294;SDS011;4686;44.496;11.324;2022-12-20T08:35:08;68.40;;;41.40;;
9294;SDS011;4686;44.496;11.324;2022-12-20T08:37:37;73.47;;;42.93;;
9294;SDS011;4686;44.496;11.324;2022-12-20T08:40:06;76.40;;;43.00;;
9294;SDS011;4686;44.496;11.324;2022-12-20T08:42:35;81.43;;;44.23;;
9294;SDS011;4686;44.496;11.324;2022-12-20T08:45:03;78.20;;;45.10;;
9294;SDS011;4686;44.496;11.324;2022-12-20T08:47:30;80.50;;;45.07;;
9294;SDS011;4686;44.496;11.324;2022-12-20T08:49:57;80.60;;;44.40;;
9294;SDS011;4686;44.496;11.324;2022-12-20T08:52:25;79.23;;;46.33;;
9294;SDS011;4686;44.496;11.324;2022-12-20T08:54:52;78.53;;;44.90;;
9294;SDS011;4686;44.496;11.324;2022-12-20T08:57:19;87.43;;;45.70;;
9294;SDS011;4686;44.496;11.324;2022-12-20T08:59:48;78.73;;;46.27;;
9294;SDS011;4686;44.496;11.324;2022-12-20T09:02:15;88.17;;;46.83;;
9294;SDS011;4686;44.496;11.324;2022-12-20T09:04:42;93.50;;;50.60;;
9294;SDS011;4686;44.496;11.324;2022-12-20T09:07:09;79.57;;;45.00;;
9294;SDS011;4686;44.496;11.324;2022-12-20T09:09:37;80.47;;;45.90;;
9294;SDS011;4686;44.496;11.324;2022-12-20T09:12:04;83.50;;;48.07;;
9294;SDS011;4686;44.496;11.324;2022-12-20T09:14:33;89.10;;;48.20;;
9294;SDS011;4686;44.496;11.324;2022-12-20T09:17:01;89.77;;;49.67;;
9294;SDS011;4686;44.496;11.324;2022-12-20T09:19:29;86.40;;;49.60;;
9294;SDS011;4686;44.496;11.324;2022-12-20T09:21:56;88.77;;;49.50;;
9294;SDS011;4686;44.496;11.324;2022-12-20T09:24:23;95.03;;;50.40;;
9294;SDS011;4686;44.496;11.324;2022-12-20T09:26:50;85.93;;;50.43;;
9294;SDS011;4686;44.496;11.324;2022-12-20T09:29:17;101.47;;;53.10;;
9294;SDS011;4686;44.496;11.324;2022-12-20T09:31:45;95.90;;;51.30;;
9294;SDS011;4686;44.496;11.324;2022-12-20T09:34:16;87.33;;;49.60;;
9294;SDS011;4686;44.496;11.324;2022-12-20T09:36:43;98.67;;;52.97;;
9294;SDS011;4686;44.496;11.324;2022-12-20T09:39:11;93.03;;;51.20;;
9294;SDS011;4686;44.496;11.324;2022-12-20T09:41:38;95.33;;;52.23;;
9294;SDS011;4686;44.496;11.324;2022-12-20T09:44:11;93.80;;;53.57;;
9294;SDS011;4686;44.496;11.324;2022-12-20T09:46:39;98.43;;;53.47;;
9294;SDS011;4686;44.496;11.324;2022-12-20T09:49:07;97.73;;;52.03;;
9294;SDS011;4686;44.496;11.324;2022-12-20T09:51:49;104.03;;;52.07;;
9294;SDS011;4686;44.496;11.324;2022-12-20T09:54:21;95.57;;;51.33;;
9294;SDS011;4686;44.496;11.324;2022-12-20T09:56:57;95.07;;;53.90;;
9294;SDS011;4686;44.496;11.324;2022-12-20T09:59:24;94.83;;;53.00;;
9294;SDS011;4686;44.496;11.324;2022-12-20T10:01:52;100.97;;;54.30;;
9294;SDS011;4686;44.496;11.324;2022-12-20T10:04:20;94.20;;;54.73;;
9294;SDS011;4686;44.496;11.324;2022-12-20T10:06:52;95.43;;;50.97;;
9294;SDS011;4686;44.496;11.324;2022-12-20T10:09:28;100.77;;;52.53;;
9294;SDS011;4686;44.496;11.324;2022-12-20T10:12:00;98.03;;;53.20;;
9294;SDS011;4686;44.496;11.324;2022-12-20T10:14:40;102.10;;;53.33;;
9294;SDS011;4686;44.496;11.324;2022-12-20T10:17:13;94.60;;;55.27;;
9294;SDS011;4686;44.496;11.324;2022-12-20T10:19:54;102.57;;;55.47;;
9294;SDS011;4686;44.496;11.324;2022-12-20T10:22:27;94.87;;;51.97;;
9294;SDS011;4686;44.496;11.324;2022-12-20T10:24:57;112.43;;;56.70;;
9294;SDS011;4686;44.496;11.324;2022-12-20T10:27:25;106.87;;;54.33;;
9294;SDS011;4686;44.496;11.324;2022-12-20T10:29:53;97.77;;;55.03;;
9294;SDS011;4686;44.496;11.324;2022-12-20T10:32:22;100.00;;;57.30;;
9294;SDS011;4686;44.496;11.324;2022-12-20T10:34:51;106.43;;;57.30;;
9294;SDS011;4686;44.496;11.324;2022-12-20T10:37:18;96.30;;;55.07;;
9294;SDS011;4686;44.496;11.324;2022-12-20T10:39:48;111.03;;;55.30;;
9294;SDS011;4686;44.496;11.324;2022-12-20T10:42:34;108.83;;;55.43;;
9294;SDS011;4686;44.496;11.324;2022-12-20T10:45:04;112.27;;;56.93;;
9294;SDS011;4686;44.496;11.324;2022-12-20T10:47:45;105.50;;;56.43;;
9294;SDS011;4686;44.496;11.324;2022-12-20T10:50:14;101.47;;;56.73;;
9294;SDS011;4686;44.496;11.324;2022-12-20T10:52:43;114.33;;;60.50;;
9294;SDS011;4686;44.496;11.324;2022-12-20T10:55:33;107.80;;;56.10;;
9294;SDS011;4686;44.496;11.324;2022-12-20T10:58:01;106.47;;;56.50;;
9294;SDS011;4686;44.496;11.324;2022-12-20T11:00:31;98.60;;;55.00;;
9294;SDS011;4686;44.496;11.324;2022-12-20T11:03:09;105.47;;;57.93;;
9294;SDS011;4686;44.496;11.324;2022-12-20T11:05:37;96.93;;;56.33;;
9294;SDS011;4686;44.496;11.324;2022-12-20T11:08:12;104.97;;;58.87;;
9294;SDS011;4686;44.496;11.324;2022-12-20T11:10:41;108.87;;;59.43;;
9294;SDS011;4686;44.496;11.324;2022-12-20T11:13:18;100.00;;;56.70;;
9294;SDS011;4686;44.496;11.324;2022-12-20T11:15:47;108.60;;;56.70;;
9294;SDS011;4686;44.496;11.324;2022-12-20T11:18:18;96.13;;;54.80;;
9294;SDS011;4686;44.496;11.324;2022-12-20T11:20:54;102.73;;;57.63;;
9294;SDS011;4686;44.496;11.324;2022-12-20T11:23:24;102.10;;;57.67;;
9294;SDS011;4686;44.496;11.324;2022-12-20T11:26:09;108.53;;;58.27;;
9294;SDS011;4686;44.496;11.324;2022-12-20T11:28:57;109.67;;;57.03;;
9294;SDS011;4686;44.496;11.324;2022-12-20T11:31:33;104.97;;;56.07;;
9294;SDS011;4686;44.496;11.324;2022-12-20T11:34:12;100.87;;;54.57;;
9294;SDS011;4686;44.496;11.324;2022-12-20T11:36:55;102.03;;;55.00;;
9294;SDS011;4686;44.496;11.324;2022-12-20T11:39:26;104.03;;;56.30;;
9294;SDS011;4686;44.496;11.324;2022-12-20T11:41:58;105.43;;;57.03;;
9294;SDS011;4686;44.496;11.324;2022-12-20T11:44:31;95.73;;;55.37;;
9294;SDS011;4686;44.496;11.324;2022-12-20T11:47:02;93.47;;;53.33;;
9294;SDS011;4686;44.496;11.324;2022-12-20T11:49:38;93.63;;;52.90;;
9294;SDS011;4686;44.496;11.324;2022-12-20T11:52:09;109.07;;;57.70;;
9294;SDS011;4686;44.496;11.324;2022-12-20T11:54:40;99.70;;;55.33;;
9294;SDS011;4686;44.496;11.324;2022-12-20T11:57:12;97.80;;;54.80;;
9294;SDS011;4686;44.496;11.324;2022-12-20T11:59:41;97.60;;;54.40;;
9294;SDS011;4686;44.496;11.324;2022-12-20T12:02:10;94.27;;;55.00;;
9294;SDS011;4686;44.496;11.324;2022-12-20T12:04:40;101.57;;;53.83;;
9294;SDS011;4686;44.496;11.324;2022-12-20T12:07:10;91.00;;;54.40;;
9294;SDS011;4686;44.496;11.324;2022-12-20T12:09:41;92.13;;;54.43;;
9294;SDS011;4686;44.496;11.324;2022-12-20T12:12:15;95.90;;;55.00;;
9294;SDS011;4686;44.496;11.324;2022-12-20T12:14:47;85.60;;;51.43;;
9294;SDS011;4686;44.496;11.324;2022-12-20T12:17:17;98.70;;;54.63;;
9294;SDS011;4686;44.496;11.324;2022-12-20T12:19:49;97.03;;;55.43;;
9294;SDS011;4686;44.496;11.324;2022-12-20T12:22:21;99.90;;;54.03;;
9294;SDS011;4686;44.496;11.324;2022-12-20T12:24:50;101.03;;;55.30;;
9294;SDS011;4686;44.496;11.324;2022-12-20T12:27:22;100.47;;;56.40;;
9294;SDS011;4686;44.496;11.324;2022-12-20T12:29:50;100.57;;;57.33;;
9294;SDS011;4686;44.496;11.324;2022-12-20T12:32:19;96.47;;;54.20;;
9294;SDS011;4686;44.496;11.324;2022-12-20T12:34:53;106.27;;;56.67;;
9294;SDS011;4686;44.496;11.324;2022-12-20T12:37:28;94.90;;;53.60;;
9294;SDS011;4686;44.496;11.324;2022-12-20T12:42:54;91.93;;;53.40;;
9294;SDS011;4686;44.496;11.324;2022-12-20T12:45:25;95.10;;;53.77;;
9294;SDS011;4686;44.496;11.324;2022-12-20T12:47:54;94.80;;;55.60;;
9294;SDS011;4686;44.496;11.324;2022-12-20T12:50:23;94.80;;;52.93;;
9294;SDS011;4686;44.496;11.324;2022-12-20T12:52:53;98.90;;;56.10;;
9294;SDS011;4686;44.496;11.324;2022-12-20T12:55:34;101.93;;;56.50;;
9294;SDS011;4686;44.496;11.324;2022-12-20T12:58:13;100.90;;;56.67;;
9294;SDS011;4686;44.496;11.324;2022-12-20T13:00:47;104.53;;;55.43;;
9294;SDS011;4686;44.496;11.324;2022-12-20T13:03:15;95.50;;;53.17;;
9294;SDS011;4686;44.496;11.324;2022-12-20T13:05:42;102.50;;;55.17;;
9294;SDS011;4686;44.496;11.324;2022-12-20T13:08:14;96.67;;;53.67;;
9294;SDS011;4686;44.496;11.324;2022-12-20T13:10:58;86.37;;;50.40;;
9294;SDS011;4686;44.496;11.324;2022-12-20T13:13:27;92.80;;;54.60;;
9294;SDS011;4686;44.496;11.324;2022-12-20T13:16:11;97.43;;;55.70;;
9294;SDS011;4686;44.496;11.324;2022-12-20T13:18:52;92.37;;;52.83;;
9294;SDS011;4686;44.496;11.324;2022-12-20T13:21:34;102.63;;;54.07;;
9294;SDS011;4686;44.496;11.324;2022-12-20T13:26:49;103.40;;;57.20;;
9294;SDS011;4686;44.496;11.324;2022-12-20T13:29:23;100.13;;;54.33;;
9294;SDS011;4686;44.496;11.324;2022-12-20T13:31:51;96.77;;;55.03;;
9294;SDS011;4686;44.496;11.324;2022-12-20T13:34:37;95.57;;;54.60;;
9294;SDS011;4686;44.496;11.324;2022-12-20T13:39:51;99.90;;;53.70;;
9294;SDS011;4686;44.496;11.324;2022-12-20T13:42:23;92.10;;;54.07;;
9294;SDS011;4686;44.496;11.324;2022-12-20T13:44:56;96.77;;;53.00;;
9294;SDS011;4686;44.496;11.324;2022-12-20T13:47:30;97.63;;;56.60;;
9294;SDS011;4686;44.496;11.324;2022-12-20T13:49:58;98.23;;;54.33;;
9294;SDS011;4686;44.496;11.324;2022-12-20T13:52:27;104.67;;;55.27;;
9294;SDS011;4686;44.496;11.324;2022-12-20T13:54:56;90.83;;;54.63;;
9294;SDS011;4686;44.496;11.324;2022-12-20T13:57:28;110.30;;;61.93;;
9294;SDS011;4686;44.496;11.324;2022-12-20T13:59:59;103.33;;;58.03;;
9294;SDS011;4686;44.496;11.324;2022-12-20T14:02:28;105.80;;;57.17;;
9294;SDS011;4686;44.496;11.324;2022-12-20T14:04:57;109.37;;;61.40;;
9294;SDS011;4686;44.496;11.324;2022-12-20T14:07:25;100.43;;;57.23;;
9294;SDS011;4686;44.496;11.324;2022-12-20T14:09:57;105.83;;;60.87;;
9294;SDS011;4686;44.496;11.324;2022-12-20T14:12:24;104.20;;;59.90;;
9294;SDS011;4686;44.496;11.324;2022-12-20T14:14:52;102.70;;;63.00;;
9294;SDS011;4686;44.496;11.324;2022-12-20T14:17:23;112.83;;;60.63;;
9294;SDS011;4686;44.496;11.324;2022-12-20T14:20:11;130.80;;;67.23;;
9294;SDS011;4686;44.496;11.324;2022-12-20T14:22:39;119.90;;;63.10;;
9294;SDS011;4686;44.496;11.324;2022-12-20T14:25:08;121.50;;;64.40;;
9294;SDS011;4686;44.496;11.324;2022-12-20T14:27:35;114.67;;;63.00;;
9294;SDS011;4686;44.496;11.324;2022-12-20T14:30:04;114.57;;;61.97;;
9294;SDS011;4686;44.496;11.324;2022-12-20T14:32:33;117.80;;;64.43;;
9294;SDS011;4686;44.496;11.324;2022-12-20T14:35:00;120.20;;;63.40;;
9294;SDS011;4686;44.496;11.324;2022-12-20T14:37:31;113.30;;;61.07;;
9294;SDS011;4686;44.496;11.324;2022-12-20T14:40:00;120.97;;;64.60;;
9294;SDS011;4686;44.496;11.324;2022-12-20T14:42:28;120.17;;;65.57;;
9294;SDS011;4686;44.496;11.324;2022-12-20T14:45:01;131.13;;;62.97;;
9294;SDS011;4686;44.496;11.324;2022-12-20T14:47:29;117.80;;;60.90;;
9294;SDS011;4686;44.496;11.324;2022-12-20T14:49:58;117.77;;;64.43;;
9294;SDS011;4686;44.496;11.324;2022-12-20T14:52:26;124.80;;;65.90;;
9294;SDS011;4686;44.496;11.324;2022-12-20T14:54:56;120.03;;;61.53;;
9294;SDS011;4686;44.496;11.324;2022-12-20T14:57:28;112.47;;;61.90;;